Sylvania, Indiana
Current Conditions -  °F | °C
As of 9:15 PM on Saturday 22 Nov 2014 (Local Time) from KPRG Reporting Station
Overcast Overcast  
Wind Chill: 51°   Ceiling: 7500
Heat Index: 51°   Visibility: 10mi
Dew Point: 46°   Wind: 6mph
Humidity: 83%   Direction: 170°S
Pressure: 29.98"   Gusts: NA
Location:  39.8468°N, 87.2662°W
Report Text: KPRG 230215Z AUTO 17005KT 10SM SCT060 BKN075 OVC085 10/08 A2998 RMK AO2 T01030075
Loading
Personal Weather Stations






























Interactive Weather Map New forecast layout! Learn more

10-Day Weather Forecast

Advertisements
Track Severe Weather on mobile